sensor_id;sensor_type;location;lat;lon;timestamp;pressure;altitude;pressure_sealevel;temperature;humidity
50682;BME280;36779;52.168;20.878;2023-08-30T00:00:56;99337.80;;;19.85;69.01
50682;BME280;36779;52.168;20.878;2023-08-30T00:03:38;99340.17;;;19.87;68.81
50682;BME280;36779;52.168;20.878;2023-08-30T00:06:11;99334.56;;;19.89;69.01
50682;BME280;36779;52.168;20.878;2023-08-30T00:08:46;99321.13;;;19.91;69.01
50682;BME280;36779;52.168;20.878;2023-08-30T00:11:18;99318.95;;;19.93;69.06
50682;BME280;36779;52.168;20.878;2023-08-30T00:13:50;99318.09;;;19.94;69.05
50682;BME280;36779;52.168;20.878;2023-08-30T00:16:24;99320.49;;;19.93;68.94
50682;BME280;36779;52.168;20.878;2023-08-30T00:18:59;99319.20;;;19.93;69.06
50682;BME280;36779;52.168;20.878;2023-08-30T00:21:31;99319.78;;;19.88;68.77
50682;BME280;36779;52.168;20.878;2023-08-30T00:24:04;99323.02;;;19.81;68.72
50682;BME280;36779;52.168;20.878;2023-08-30T00:26:36;99326.39;;;19.78;68.81
50682;BME280;36779;52.168;20.878;2023-08-30T00:29:09;99328.40;;;19.82;69.15
50682;BME280;36779;52.168;20.878;2023-08-30T00:31:46;99331.84;;;19.84;69.05
50682;BME280;36779;52.168;20.878;2023-08-30T00:34:18;99332.84;;;19.82;68.93
50682;BME280;36779;52.168;20.878;2023-08-30T00:36:51;99331.64;;;19.79;68.95
50682;BME280;36779;52.168;20.878;2023-08-30T00:39:27;99339.92;;;19.74;68.96
50682;BME280;36779;52.168;20.878;2023-08-30T00:41:59;99342.87;;;19.72;69.00
50682;BME280;36779;52.168;20.878;2023-08-30T00:44:38;99349.58;;;19.72;69.05
50682;BME280;36779;52.168;20.878;2023-08-30T00:47:12;99351.76;;;19.70;69.11
50682;BME280;36779;52.168;20.878;2023-08-30T00:49:47;99351.75;;;19.67;69.05
50682;BME280;36779;52.168;20.878;2023-08-30T00:52:21;99352.77;;;19.61;68.97
50682;BME280;36779;52.168;20.878;2023-08-30T00:54:53;99359.27;;;19.55;69.06
50682;BME280;36779;52.168;20.878;2023-08-30T00:57:25;99359.16;;;19.52;69.05
50682;BME280;36779;52.168;20.878;2023-08-30T00:59:59;99362.00;;;19.47;69.02
50682;BME280;36779;52.168;20.878;2023-08-30T01:02:34;99367.35;;;19.40;69.04
50682;BME280;36779;52.168;20.878;2023-08-30T01:05:07;99374.19;;;19.39;68.92
50682;BME280;36779;52.168;20.878;2023-08-30T01:07:41;99372.33;;;19.35;69.09
50682;BME280;36779;52.168;20.878;2023-08-30T01:10:15;99370.42;;;19.33;69.11
50682;BME280;36779;52.168;20.878;2023-08-30T01:12:50;99377.58;;;19.29;69.16
50682;BME280;36779;52.168;20.878;2023-08-30T01:15:26;99381.45;;;19.25;69.17
50682;BME280;36779;52.168;20.878;2023-08-30T01:17:59;99390.82;;;19.23;69.13
50682;BME280;36779;52.168;20.878;2023-08-30T01:20:40;99381.54;;;19.14;69.12
50682;BME280;36779;52.168;20.878;2023-08-30T01:23:26;99378.13;;;19.09;69.13
50682;BME280;36779;52.168;20.878;2023-08-30T01:26:07;99380.85;;;19.06;69.18
50682;BME280;36779;52.168;20.878;2023-08-30T01:28:45;99383.13;;;19.07;69.19
50682;BME280;36779;52.168;20.878;2023-08-30T01:31:20;99380.80;;;19.04;69.26
50682;BME280;36779;52.168;20.878;2023-08-30T01:33:54;99377.92;;;19.03;69.29
50682;BME280;36779;52.168;20.878;2023-08-30T01:36:28;99377.94;;;19.01;69.30
50682;BME280;36779;52.168;20.878;2023-08-30T01:39:02;99382.80;;;19.00;69.42
50682;BME280;36779;52.168;20.878;2023-08-30T01:41:36;99389.55;;;19.01;69.35
50682;BME280;36779;52.168;20.878;2023-08-30T01:44:09;99391.99;;;18.96;69.40
50682;BME280;36779;52.168;20.878;2023-08-30T01:46:43;99389.61;;;18.93;69.41
50682;BME280;36779;52.168;20.878;2023-08-30T01:49:19;99388.05;;;18.88;69.38
50682;BME280;36779;52.168;20.878;2023-08-30T01:51:52;99383.98;;;18.86;69.38
50682;BME280;36779;52.168;20.878;2023-08-30T01:54:29;99381.36;;;18.88;69.56
50682;BME280;36779;52.168;20.878;2023-08-30T01:57:01;99377.42;;;18.88;69.47
50682;BME280;36779;52.168;20.878;2023-08-30T01:59:35;99370.45;;;18.88;69.57
50682;BME280;36779;52.168;20.878;2023-08-30T02:02:07;99369.97;;;18.85;69.57
50682;BME280;36779;52.168;20.878;2023-08-30T02:04:39;99366.70;;;18.80;69.42
50682;BME280;36779;52.168;20.878;2023-08-30T02:07:17;99368.23;;;18.73;69.30
50682;BME280;36779;52.168;20.878;2023-08-30T02:09:58;99366.19;;;18.70;69.39
50682;BME280;36779;52.168;20.878;2023-08-30T02:12:37;99359.30;;;18.68;69.35
50682;BME280;36779;52.168;20.878;2023-08-30T02:15:14;99356.44;;;18.65;69.43
50682;BME280;36779;52.168;20.878;2023-08-30T02:17:47;99353.89;;;18.66;69.56
50682;BME280;36779;52.168;20.878;2023-08-30T02:20:21;99345.95;;;18.65;69.47
50682;BME280;36779;52.168;20.878;2023-08-30T02:22:57;99338.96;;;18.60;69.40
50682;BME280;36779;52.168;20.878;2023-08-30T02:25:41;99320.88;;;18.54;69.55
50682;BME280;36779;52.168;20.878;2023-08-30T02:28:15;99312.06;;;18.51;69.56
50682;BME280;36779;52.168;20.878;2023-08-30T02:30:47;99302.65;;;18.47;69.42
50682;BME280;36779;52.168;20.878;2023-08-30T02:33:20;99285.88;;;18.39;69.52
50682;BME280;36779;52.168;20.878;2023-08-30T02:35:52;99269.35;;;18.33;69.54
50682;BME280;36779;52.168;20.878;2023-08-30T02:38:27;99269.82;;;18.29;69.45
50682;BME280;36779;52.168;20.878;2023-08-30T02:40:59;99273.19;;;18.30;69.73
50682;BME280;36779;52.168;20.878;2023-08-30T02:43:31;99281.80;;;18.38;69.83
50682;BME280;36779;52.168;20.878;2023-08-30T02:46:10;99276.58;;;18.41;69.80
50682;BME280;36779;52.168;20.878;2023-08-30T02:48:47;99266.25;;;18.37;69.78
50682;BME280;36779;52.168;20.878;2023-08-30T02:51:19;99264.60;;;18.33;69.59
50682;BME280;36779;52.168;20.878;2023-08-30T02:53:51;99260.23;;;18.29;69.75
50682;BME280;36779;52.168;20.878;2023-08-30T02:56:23;99262.55;;;18.29;69.80
50682;BME280;36779;52.168;20.878;2023-08-30T02:58:56;99264.89;;;18.28;69.72
50682;BME280;36779;52.168;20.878;2023-08-30T03:01:28;99267.38;;;18.26;69.81
50682;BME280;36779;52.168;20.878;2023-08-30T03:04:01;99274.05;;;18.31;70.07
50682;BME280;36779;52.168;20.878;2023-08-30T03:06:35;99271.42;;;18.34;69.96
50682;BME280;36779;52.168;20.878;2023-08-30T03:09:08;99269.46;;;18.28;69.78
50682;BME280;36779;52.168;20.878;2023-08-30T03:11:40;99280.80;;;18.26;70.05
50682;BME280;36779;52.168;20.878;2023-08-30T03:14:13;99284.13;;;18.25;70.10
50682;BME280;36779;52.168;20.878;2023-08-30T03:16:47;99281.23;;;18.28;70.14
50682;BME280;36779;52.168;20.878;2023-08-30T03:19:19;99272.52;;;18.24;69.96
50682;BME280;36779;52.168;20.878;2023-08-30T03:21:54;99276.41;;;18.24;70.20
50682;BME280;36779;52.168;20.878;2023-08-30T03:24:29;99280.09;;;18.28;70.20
50682;BME280;36779;52.168;20.878;2023-08-30T03:27:01;99276.73;;;18.27;70.14
50682;BME280;36779;52.168;20.878;2023-08-30T03:29:36;99267.35;;;18.22;69.87
50682;BME280;36779;52.168;20.878;2023-08-30T03:32:15;99270.60;;;18.11;69.89
50682;BME280;36779;52.168;20.878;2023-08-30T03:34:48;99278.38;;;18.12;70.19
50682;BME280;36779;52.168;20.878;2023-08-30T03:37:21;99278.13;;;18.16;70.32
50682;BME280;36779;52.168;20.878;2023-08-30T03:39:53;99277.45;;;18.17;70.31
50682;BME280;36779;52.168;20.878;2023-08-30T03:42:26;99278.56;;;18.09;70.13
50682;BME280;36779;52.168;20.878;2023-08-30T03:44:59;99277.63;;;18.00;69.92
50682;BME280;36779;52.168;20.878;2023-08-30T03:47:33;99278.39;;;17.90;69.79
50682;BME280;36779;52.168;20.878;2023-08-30T03:50:06;99274.13;;;17.82;69.91
50682;BME280;36779;52.168;20.878;2023-08-30T03:52:40;99275.30;;;17.77;69.92
50682;BME280;36779;52.168;20.878;2023-08-30T03:55:12;99277.20;;;17.74;69.87
50682;BME280;36779;52.168;20.878;2023-08-30T03:57:44;99273.61;;;17.70;69.89
50682;BME280;36779;52.168;20.878;2023-08-30T04:00:17;99277.67;;;17.74;70.03
50682;BME280;36779;52.168;20.878;2023-08-30T04:02:50;99277.41;;;17.75;70.13
50682;BME280;36779;52.168;20.878;2023-08-30T04:05:22;99279.34;;;17.81;70.28
50682;BME280;36779;52.168;20.878;2023-08-30T04:07:59;99286.91;;;17.90;70.22
50682;BME280;36779;52.168;20.878;2023-08-30T04:10:40;99287.08;;;17.90;70.19
50682;BME280;36779;52.168;20.878;2023-08-30T04:13:14;99285.59;;;17.86;70.20
50682;BME280;36779;52.168;20.878;2023-08-30T04:15:48;99282.00;;;17.83;70.11
50682;BME280;36779;52.168;20.878;2023-08-30T04:18:20;99282.09;;;17.79;70.17
50682;BME280;36779;52.168;20.878;2023-08-30T04:20:56;99289.09;;;17.79;70.16
50682;BME280;36779;52.168;20.878;2023-08-30T04:23:29;99287.66;;;17.85;70.32
50682;BME280;36779;52.168;20.878;2023-08-30T04:26:01;99285.73;;;17.90;70.38
50682;BME280;36779;52.168;20.878;2023-08-30T04:28:36;99284.77;;;17.99;70.58
50682;BME280;36779;52.168;20.878;2023-08-30T04:31:08;99283.71;;;18.04;70.61
50682;BME280;36779;52.168;20.878;2023-08-30T04:33:41;99281.83;;;18.07;70.48
50682;BME280;36779;52.168;20.878;2023-08-30T04:36:13;99279.26;;;18.14;70.67
50682;BME280;36779;52.168;20.878;2023-08-30T04:38:47;99273.94;;;18.17;70.51
50682;BME280;36779;52.168;20.878;2023-08-30T04:41:33;99278.42;;;18.16;70.40
50682;BME280;36779;52.168;20.878;2023-08-30T04:44:09;99280.50;;;18.16;70.28
50682;BME280;36779;52.168;20.878;2023-08-30T04:46:42;99282.67;;;18.11;70.29
50682;BME280;36779;52.168;20.878;2023-08-30T04:49:19;99288.13;;;18.12;70.47
50682;BME280;36779;52.168;20.878;2023-08-30T04:51:55;99290.61;;;18.15;70.53
50682;BME280;36779;52.168;20.878;2023-08-30T04:54:27;99297.44;;;18.14;70.42
50682;BME280;36779;52.168;20.878;2023-08-30T04:56:59;99308.36;;;18.13;70.34
50682;BME280;36779;52.168;20.878;2023-08-30T04:59:34;99313.38;;;18.09;70.29
50682;BME280;36779;52.168;20.878;2023-08-30T05:02:10;99315.27;;;18.07;70.41
50682;BME280;36779;52.168;20.878;2023-08-30T05:04:50;99317.24;;;18.09;70.49
50682;BME280;36779;52.168;20.878;2023-08-30T05:07:22;99319.22;;;18.10;70.44
50682;BME280;36779;52.168;20.878;2023-08-30T05:09:55;99319.86;;;18.08;70.43
50682;BME280;36779;52.168;20.878;2023-08-30T05:12:32;99328.48;;;18.04;70.32
50682;BME280;36779;52.168;20.878;2023-08-30T05:15:07;99328.13;;;18.01;70.33
50682;BME280;36779;52.168;20.878;2023-08-30T05:17:39;99332.55;;;17.99;70.45
50682;BME280;36779;52.168;20.878;2023-08-30T05:20:14;99330.62;;;17.96;70.43
50682;BME280;36779;52.168;20.878;2023-08-30T05:22:47;99343.34;;;17.91;70.30
50682;BME280;36779;52.168;20.878;2023-08-30T05:25:21;99348.14;;;17.94;70.43
50682;BME280;36779;52.168;20.878;2023-08-30T05:27:57;99348.11;;;17.93;70.51
50682;BME280;36779;52.168;20.878;2023-08-30T05:30:29;99352.96;;;17.93;70.54
50682;BME280;36779;52.168;20.878;2023-08-30T05:33:03;99354.75;;;17.95;70.53
50682;BME280;36779;52.168;20.878;2023-08-30T05:35:59;99363.48;;;17.96;70.45
50682;BME280;36779;52.168;20.878;2023-08-30T05:38:42;99366.70;;;17.94;70.53
50682;BME280;36779;52.168;20.878;2023-08-30T05:41:27;99369.16;;;17.96;70.60
50682;BME280;36779;52.168;20.878;2023-08-30T05:43:59;99369.65;;;17.96;70.60
50682;BME280;36779;52.168;20.878;2023-08-30T05:46:32;99373.84;;;17.98;70.73
50682;BME280;36779;52.168;20.878;2023-08-30T05:49:04;99376.33;;;17.98;70.62
50682;BME280;36779;52.168;20.878;2023-08-30T05:51:36;99373.30;;;17.98;70.52
50682;BME280;36779;52.168;20.878;2023-08-30T05:54:08;99370.50;;;17.96;70.53
50682;BME280;36779;52.168;20.878;2023-08-30T05:56:40;99370.41;;;17.93;70.60
50682;BME280;36779;52.168;20.878;2023-08-30T05:59:15;99368.52;;;17.91;70.59
50682;BME280;36779;52.168;20.878;2023-08-30T06:01:50;99369.73;;;17.90;70.57
50682;BME280;36779;52.168;20.878;2023-08-30T06:04:22;99368.72;;;17.93;70.80
50682;BME280;36779;52.168;20.878;2023-08-30T06:07:00;99373.09;;;17.93;70.68
50682;BME280;36779;52.168;20.878;2023-08-30T06:09:33;99376.73;;;17.95;70.71
50682;BME280;36779;52.168;20.878;2023-08-30T06:12:08;99379.96;;;17.95;70.68
50682;BME280;36779;52.168;20.878;2023-08-30T06:14:40;99378.30;;;17.93;70.70
50682;BME280;36779;52.168;20.878;2023-08-30T06:17:16;99373.77;;;17.92;70.75
50682;BME280;36779;52.168;20.878;2023-08-30T06:19:48;99374.46;;;17.96;70.80
50682;BME280;36779;52.168;20.878;2023-08-30T06:22:22;99370.44;;;17.97;70.70
50682;BME280;36779;52.168;20.878;2023-08-30T06:24:54;99375.09;;;17.98;70.80
50682;BME280;36779;52.168;20.878;2023-08-30T06:27:26;99376.46;;;17.97;70.75
50682;BME280;36779;52.168;20.878;2023-08-30T06:29:58;99374.68;;;17.93;70.86
50682;BME280;36779;52.168;20.878;2023-08-30T06:32:31;99373.59;;;17.92;70.85
50682;BME280;36779;52.168;20.878;2023-08-30T06:35:04;99372.09;;;17.92;70.86
50682;BME280;36779;52.168;20.878;2023-08-30T06:37:37;99375.42;;;17.96;71.05
50682;BME280;36779;52.168;20.878;2023-08-30T06:40:11;99371.90;;;18.00;71.09
50682;BME280;36779;52.168;20.878;2023-08-30T06:42:43;99363.95;;;18.02;70.92
50682;BME280;36779;52.168;20.878;2023-08-30T06:45:18;99364.19;;;18.00;70.90
50682;BME280;36779;52.168;20.878;2023-08-30T06:47:51;99364.61;;;17.97;70.86
50682;BME280;36779;52.168;20.878;2023-08-30T06:50:23;99366.23;;;17.93;70.75
50682;BME280;36779;52.168;20.878;2023-08-30T06:52:58;99363.60;;;17.89;70.80
50682;BME280;36779;52.168;20.878;2023-08-30T06:55:30;99370.65;;;17.88;70.89
50682;BME280;36779;52.168;20.878;2023-08-30T06:58:06;99365.95;;;17.90;70.97
50682;BME280;36779;52.168;20.878;2023-08-30T07:00:42;99363.82;;;17.94;70.93
50682;BME280;36779;52.168;20.878;2023-08-30T07:03:16;99369.20;;;17.96;71.03
50682;BME280;36779;52.168;20.878;2023-08-30T07:05:50;99370.92;;;17.95;70.79
50682;BME280;36779;52.168;20.878;2023-08-30T07:08:22;99378.30;;;17.93;70.87
50682;BME280;36779;52.168;20.878;2023-08-30T07:10:54;99378.77;;;17.93;70.93
50682;BME280;36779;52.168;20.878;2023-08-30T07:13:26;99375.95;;;17.92;71.03
50682;BME280;36779;52.168;20.878;2023-08-30T07:15:59;99375.63;;;17.89;70.99
50682;BME280;36779;52.168;20.878;2023-08-30T07:18:32;99376.91;;;17.88;71.00
50682;BME280;36779;52.168;20.878;2023-08-30T07:21:04;99376.34;;;17.89;71.05
50682;BME280;36779;52.168;20.878;2023-08-30T07:23:37;99378.52;;;17.87;70.88
50682;BME280;36779;52.168;20.878;2023-08-30T07:26:09;99381.14;;;17.87;70.91
50682;BME280;36779;52.168;20.878;2023-08-30T07:28:41;99382.69;;;17.86;70.99
50682;BME280;36779;52.168;20.878;2023-08-30T07:31:16;99383.41;;;17.87;71.02
50682;BME280;36779;52.168;20.878;2023-08-30T07:33:49;99386.88;;;17.88;71.11
50682;BME280;36779;52.168;20.878;2023-08-30T07:36:21;99386.06;;;17.88;71.06
50682;BME280;36779;52.168;20.878;2023-08-30T07:39:07;99389.75;;;17.86;71.05
50682;BME280;36779;52.168;20.878;2023-08-30T07:41:40;99390.38;;;17.83;71.04
50682;BME280;36779;52.168;20.878;2023-08-30T07:44:13;99392.39;;;17.79;71.06
50682;BME280;36779;52.168;20.878;2023-08-30T07:46:45;99398.02;;;17.80;71.16
50682;BME280;36779;52.168;20.878;2023-08-30T07:49:17;99400.21;;;17.82;71.10
50682;BME280;36779;52.168;20.878;2023-08-30T07:51:50;99403.48;;;17.83;71.10
50682;BME280;36779;52.168;20.878;2023-08-30T07:54:22;99399.55;;;17.83;71.09
50682;BME280;36779;52.168;20.878;2023-08-30T07:56:55;99399.15;;;17.80;71.06
50682;BME280;36779;52.168;20.878;2023-08-30T07:59:27;99395.27;;;17.77;71.13
50682;BME280;36779;52.168;20.878;2023-08-30T08:01:59;99385.58;;;17.73;71.20
50682;BME280;36779;52.168;20.878;2023-08-30T08:04:31;99386.98;;;17.71;71.19
50682;BME280;36779;52.168;20.878;2023-08-30T08:07:04;99384.52;;;17.72;71.22
50682;BME280;36779;52.168;20.878;2023-08-30T08:09:36;99383.33;;;17.72;71.20
50682;BME280;36779;52.168;20.878;2023-08-30T08:12:09;99388.16;;;17.70;71.06
50682;BME280;36779;52.168;20.878;2023-08-30T08:14:45;99384.95;;;17.67;71.10
50682;BME280;36779;52.168;20.878;2023-08-30T08:17:17;99383.45;;;17.65;71.18
50682;BME280;36779;52.168;20.878;2023-08-30T08:19:50;99379.06;;;17.66;71.24
50682;BME280;36779;52.168;20.878;2023-08-30T08:22:23;99379.55;;;17.69;71.23
50682;BME280;36779;52.168;20.878;2023-08-30T08:24:57;99380.84;;;17.71;71.25
50682;BME280;36779;52.168;20.878;2023-08-30T08:27:31;99376.46;;;17.73;71.31
50682;BME280;36779;52.168;20.878;2023-08-30T08:30:04;99375.70;;;17.75;71.29
50682;BME280;36779;52.168;20.878;2023-08-30T08:32:37;99374.84;;;17.76;71.24
50682;BME280;36779;52.168;20.878;2023-08-30T08:35:10;99370.53;;;17.80;71.42
50682;BME280;36779;52.168;20.878;2023-08-30T08:37:45;99374.54;;;17.85;71.43
50682;BME280;36779;52.168;20.878;2023-08-30T08:40:19;99373.98;;;17.84;71.37
50682;BME280;36779;52.168;20.878;2023-08-30T08:43:19;99380.39;;;17.90;71.46
50682;BME280;36779;52.168;20.878;2023-08-30T08:45:52;99384.52;;;17.88;71.44
50682;BME280;36779;52.168;20.878;2023-08-30T08:48:24;99387.20;;;17.87;71.24
50682;BME280;36779;52.168;20.878;2023-08-30T08:50:58;99380.73;;;17.87;71.38
50682;BME280;36779;52.168;20.878;2023-08-30T08:53:32;99374.02;;;17.84;71.30
50682;BME280;36779;52.168;20.878;2023-08-30T08:56:08;99369.00;;;17.84;71.51
50682;BME280;36779;52.168;20.878;2023-08-30T08:58:41;99369.22;;;17.86;71.51
50682;BME280;36779;52.168;20.878;2023-08-30T09:01:17;99369.27;;;17.89;71.49
50682;BME280;36779;52.168;20.878;2023-08-30T09:04:07;99375.08;;;17.95;71.54
50682;BME280;36779;52.168;20.878;2023-08-30T09:06:59;99376.76;;;18.03;71.48
50682;BME280;36779;52.168;20.878;2023-08-30T09:09:34;99375.62;;;18.08;71.60
50682;BME280;36779;52.168;20.878;2023-08-30T09:12:09;99376.07;;;18.13;71.66
50682;BME280;36779;52.168;20.878;2023-08-30T09:15:01;99377.84;;;18.20;71.65
50682;BME280;36779;52.168;20.878;2023-08-30T09:17:38;99374.59;;;18.24;71.55
50682;BME280;36779;52.168;20.878;2023-08-30T09:20:15;99373.80;;;18.25;71.65
50682;BME280;36779;52.168;20.878;2023-08-30T09:22:49;99374.48;;;18.24;71.50
50682;BME280;36779;52.168;20.878;2023-08-30T09:25:26;99372.19;;;18.23;71.53
50682;BME280;36779;52.168;20.878;2023-08-30T09:28:02;99372.17;;;18.25;71.65
50682;BME280;36779;52.168;20.878;2023-08-30T09:30:35;99375.33;;;18.31;71.80
50682;BME280;36779;52.168;20.878;2023-08-30T09:33:07;99377.02;;;18.29;71.54
50682;BME280;36779;52.168;20.878;2023-08-30T09:35:46;99377.64;;;18.24;71.66
50682;BME280;36779;52.168;20.878;2023-08-30T09:38:19;99375.66;;;18.22;71.55
50682;BME280;36779;52.168;20.878;2023-08-30T09:40:52;99380.57;;;18.21;71.45
50682;BME280;36779;52.168;20.878;2023-08-30T09:43:27;99382.02;;;18.21;71.52
50682;BME280;36779;52.168;20.878;2023-08-30T09:46:02;99378.55;;;18.23;71.68
50682;BME280;36779;52.168;20.878;2023-08-30T09:48:35;99373.71;;;18.22;71.54
50682;BME280;36779;52.168;20.878;2023-08-30T09:51:10;99378.50;;;18.19;71.51
50682;BME280;36779;52.168;20.878;2023-08-30T09:53:45;99380.98;;;18.21;71.71
50682;BME280;36779;52.168;20.878;2023-08-30T09:56:36;99382.98;;;18.26;71.66
50682;BME280;36779;52.168;20.878;2023-08-30T09:59:11;99384.96;;;18.30;71.86
50682;BME280;36779;52.168;20.878;2023-08-30T10:01:45;99377.02;;;18.30;71.78
50682;BME280;36779;52.168;20.878;2023-08-30T10:04:20;99376.59;;;18.25;71.53
50682;BME280;36779;52.168;20.878;2023-08-30T10:06:53;99378.67;;;18.21;71.71
50682;BME280;36779;52.168;20.878;2023-08-30T10:09:25;99372.34;;;18.18;71.59
50682;BME280;36779;52.168;20.878;2023-08-30T10:11:59;99369.92;;;18.08;71.53
50682;BME280;36779;52.168;20.878;2023-08-30T10:14:35;99369.41;;;18.05;71.58
50682;BME280;36779;52.168;20.878;2023-08-30T10:17:08;99373.89;;;18.05;71.77
50682;BME280;36779;52.168;20.878;2023-08-30T10:19:42;99370.00;;;18.02;71.76
50682;BME280;36779;52.168;20.878;2023-08-30T10:22:17;99368.92;;;18.02;71.56
50682;BME280;36779;52.168;20.878;2023-08-30T10:24:54;99368.55;;;18.05;71.76
50682;BME280;36779;52.168;20.878;2023-08-30T10:27:34;99363.12;;;18.08;71.80
50682;BME280;36779;52.168;20.878;2023-08-30T10:30:09;99360.02;;;18.11;71.68
50682;BME280;36779;52.168;20.878;2023-08-30T10:32:44;99365.86;;;18.18;71.87
50682;BME280;36779;52.168;20.878;2023-08-30T10:35:21;99360.69;;;18.25;71.98
50682;BME280;36779;52.168;20.878;2023-08-30T10:37:57;99359.25;;;18.31;71.83
50682;BME280;36779;52.168;20.878;2023-08-30T10:40:31;99359.47;;;18.33;71.76
50682;BME280;36779;52.168;20.878;2023-08-30T10:43:06;99366.27;;;18.37;71.77
50682;BME280;36779;52.168;20.878;2023-08-30T10:45:41;99372.89;;;18.46;71.91
50682;BME280;36779;52.168;20.878;2023-08-30T10:48:15;99373.76;;;18.59;72.04
50682;BME280;36779;52.168;20.878;2023-08-30T10:50:49;99372.56;;;18.67;71.84
50682;BME280;36779;52.168;20.878;2023-08-30T10:53:30;99372.14;;;18.68;71.87
50682;BME280;36779;52.168;20.878;2023-08-30T10:56:09;99376.44;;;18.73;72.01
50682;BME280;36779;52.168;20.878;2023-08-30T10:58:42;99372.98;;;18.84;72.19
50682;BME280;36779;52.168;20.878;2023-08-30T11:01:15;99373.30;;;18.84;71.95
50682;BME280;36779;52.168;20.878;2023-08-30T11:03:49;99375.85;;;18.84;71.92
50682;BME280;36779;52.168;20.878;2023-08-30T11:06:24;99369.09;;;18.84;72.01
50682;BME280;36779;52.168;20.878;2023-08-30T11:08:56;99376.17;;;18.86;71.97
50682;BME280;36779;52.168;20.878;2023-08-30T11:11:28;99375.44;;;18.88;72.07
50682;BME280;36779;52.168;20.878;2023-08-30T11:14:07;99376.09;;;18.92;71.84
50682;BME280;36779;52.168;20.878;2023-08-30T11:16:40;99379.39;;;18.95;71.89
50682;BME280;36779;52.168;20.878;2023-08-30T11:19:19;99379.63;;;18.95;71.91
50682;BME280;36779;52.168;20.878;2023-08-30T11:21:58;99379.63;;;18.95;71.83
50682;BME280;36779;52.168;20.878;2023-08-30T11:24:32;99376.41;;;18.94;71.77
50682;BME280;36779;52.168;20.878;2023-08-30T11:27:08;99376.85;;;18.91;71.68
50682;BME280;36779;52.168;20.878;2023-08-30T11:29:42;99373.48;;;18.89;71.63
50682;BME280;36779;52.168;20.878;2023-08-30T11:32:15;99374.48;;;18.93;71.78
50682;BME280;36779;52.168;20.878;2023-08-30T11:34:59;99373.88;;;18.98;71.78
50682;BME280;36779;52.168;20.878;2023-08-30T11:37:32;99375.14;;;18.99;71.92
50682;BME280;36779;52.168;20.878;2023-08-30T11:40:09;99373.26;;;19.04;71.90
50682;BME280;36779;52.168;20.878;2023-08-30T11:42:44;99372.57;;;19.08;71.88
50682;BME280;36779;52.168;20.878;2023-08-30T11:45:17;99369.64;;;19.13;71.87
50682;BME280;36779;52.168;20.878;2023-08-30T11:47:50;99374.79;;;19.15;71.73
50682;BME280;36779;52.168;20.878;2023-08-30T11:50:23;99378.25;;;19.18;71.85
50682;BME280;36779;52.168;20.878;2023-08-30T11:53:03;99382.32;;;19.25;72.00
50682;BME280;36779;52.168;20.878;2023-08-30T11:55:39;99382.98;;;19.33;71.88
50682;BME280;36779;52.168;20.878;2023-08-30T11:58:22;99385.80;;;19.33;71.91
50682;BME280;36779;52.168;20.878;2023-08-30T12:01:00;99378.50;;;19.38;71.98
50682;BME280;36779;52.168;20.878;2023-08-30T12:03:40;99383.22;;;19.42;71.93
50682;BME280;36779;52.168;20.878;2023-08-30T12:06:19;99387.18;;;19.47;72.07
50682;BME280;36779;52.168;20.878;2023-08-30T12:09:02;99391.02;;;19.50;72.13
50682;BME280;36779;52.168;20.878;2023-08-30T12:11:42;99393.83;;;19.53;72.23
50682;BME280;36779;52.168;20.878;2023-08-30T12:14:35;99395.48;;;19.51;71.96
50682;BME280;36779;52.168;20.878;2023-08-30T12:17:11;99396.98;;;19.49;72.14
50682;BME280;36779;52.168;20.878;2023-08-30T12:19:54;99400.56;;;19.52;72.04
50682;BME280;36779;52.168;20.878;2023-08-30T12:22:46;99396.31;;;19.53;72.02
50682;BME280;36779;52.168;20.878;2023-08-30T12:25:30;99394.56;;;19.55;71.99
50682;BME280;36779;52.168;20.878;2023-08-30T12:28:21;99390.07;;;19.60;72.16
50682;BME280;36779;52.168;20.878;2023-08-30T12:31:01;99395.20;;;19.66;72.10
50682;BME280;36779;52.168;20.878;2023-08-30T12:33:41;99394.00;;;19.65;72.00
50682;BME280;36779;52.168;20.878;2023-08-30T12:36:17;99402.32;;;19.63;71.89
50682;BME280;36779;52.168;20.878;2023-08-30T12:38:59;99401.56;;;19.63;71.96
50682;BME280;36779;52.168;20.878;2023-08-30T12:41:47;99400.31;;;19.64;72.13
50682;BME280;36779;52.168;20.878;2023-08-30T12:44:22;99400.05;;;19.62;71.90
50682;BME280;36779;52.168;20.878;2023-08-30T12:47:02;99398.48;;;19.57;71.89
50682;BME280;36779;52.168;20.878;2023-08-30T12:49:40;99391.14;;;19.54;71.95
50682;BME280;36779;52.168;20.878;2023-08-30T12:52:22;99386.30;;;19.52;71.83
50682;BME280;36779;52.168;20.878;2023-08-30T12:54:55;99383.84;;;19.50;71.91
50682;BME280;36779;52.168;20.878;2023-08-30T12:57:34;99379.87;;;19.48;71.77
50682;BME280;36779;52.168;20.878;2023-08-30T13:00:15;99381.73;;;19.41;71.67
50682;BME280;36779;52.168;20.878;2023-08-30T13:02:55;99383.99;;;19.37;71.62
50682;BME280;36779;52.168;20.878;2023-08-30T13:05:45;99389.08;;;19.35;71.80
50682;BME280;36779;52.168;20.878;2023-08-30T13:08:22;99385.55;;;19.31;71.54
50682;BME280;36779;52.168;20.878;2023-08-30T13:11:03;99381.23;;;19.31;71.62
50682;BME280;36779;52.168;20.878;2023-08-30T13:13:38;99383.92;;;19.40;72.01
50682;BME280;36779;52.168;20.878;2023-08-30T13:16:19;99387.04;;;19.48;71.85
50682;BME280;36779;52.168;20.878;2023-08-30T13:18:54;99385.30;;;19.47;71.55
50682;BME280;36779;52.168;20.878;2023-08-30T13:21:31;99387.47;;;19.45;71.62
50682;BME280;36779;52.168;20.878;2023-08-30T13:24:20;99388.57;;;19.46;71.68
50682;BME280;36779;52.168;20.878;2023-08-30T13:27:00;99387.02;;;19.46;71.81
50682;BME280;36779;52.168;20.878;2023-08-30T13:29:55;99380.16;;;19.50;71.71
50682;BME280;36779;52.168;20.878;2023-08-30T13:32:34;99373.66;;;19.57;71.95